Time;durP1;ratioP1;P1;durP2;ratioP2;P2;SDS_P1;SDS_P2;PMS_P1;PMS_P2;Temp;Humidity;BMP_temperature;BMP_pressure;BME280_temperature;BME280_humidity;BME280_pressure;Samples;Min_cycle;Max_cycle;Signal;HPM_P1;HPM_P2
2022/12/02 00:02:28;;;;;;;1.67;1.40;;;4.80;98.20;;;;;;5010665;28;20709;-75
2022/12/02 00:04:58;;;;;;;1.67;1.40;;;4.80;98.20;;;;;;5011688;28;20463;-75
2022/12/02 00:07:25;;;;;;;1.70;1.40;;;4.70;98.20;;;;;;4998126;28;20484;-75
2022/12/02 00:09:53;;;;;;;2.63;2.43;;;4.70;98.20;;;;;;4992222;28;20493;-76
2022/12/02 00:12:22;;;;;;;1.60;1.40;;;4.70;98.20;;;;;;4989850;28;20562;-75
2022/12/02 00:14:55;;;;;;;1.60;1.30;;;4.70;98.20;;;;;;4992305;28;20460;-75
2022/12/02 00:17:22;;;;;;;2.10;1.90;;;4.70;98.20;;;;;;5002384;28;20487;-75
2022/12/02 00:19:49;;;;;;;1.70;1.40;;;4.70;98.20;;;;;;5011785;28;20476;-75
2022/12/02 00:22:16;;;;;;;1.70;1.50;;;4.70;98.20;;;;;;4994298;28;20487;-75
2022/12/02 00:24:43;;;;;;;1.70;1.40;;;4.70;98.20;;;;;;5006010;28;20460;-75
2022/12/02 00:27:12;;;;;;;5.77;3.83;;;4.70;98.20;;;;;;5007703;28;20475;-76
2022/12/02 00:29:39;;;;;;;1.70;1.50;;;4.70;98.20;;;;;;5005794;28;20559;-75
2022/12/02 00:32:06;;;;;;;1.60;1.37;;;4.70;98.20;;;;;;4997695;28;20483;-74
2022/12/02 00:34:33;;;;;;;1.77;1.67;;;4.70;98.20;;;;;;5012890;28;20460;-75
2022/12/02 00:37:00;;;;;;;1.67;1.40;;;4.70;98.20;;;;;;5001472;28;20480;-75
2022/12/02 00:39:27;;;;;;;2.27;2.07;;;4.70;98.20;;;;;;4995185;28;20468;-76
2022/12/02 00:41:54;;;;;;;1.67;1.30;;;4.70;98.20;;;;;;4987409;28;20487;-75
2022/12/02 00:47:08;;;;;;;1.67;1.40;;;4.70;98.20;;;;;;4981291;28;20995;-75
2022/12/02 00:49:35;;;;;;;1.70;1.40;;;4.60;98.20;;;;;;5013397;28;20459;-75
2022/12/02 00:52:02;;;;;;;2.13;1.93;;;4.60;98.20;;;;;;4996268;28;20507;-75
2022/12/02 00:54:29;;;;;;;2.80;2.60;;;4.60;98.20;;;;;;5014797;28;20464;-75
2022/12/02 00:56:56;;;;;;;1.67;1.40;;;4.60;98.20;;;;;;5004352;28;20497;-76
2022/12/02 00:59:24;;;;;;;1.63;1.30;;;4.60;98.20;;;;;;5015396;28;20464;-75
2022/12/02 01:01:51;;;;;;;1.60;1.30;;;4.60;98.20;;;;;;4997667;28;20988;-75
2022/12/02 01:04:18;;;;;;;1.67;1.40;;;4.50;98.20;;;;;;4995917;28;20472;-75
2022/12/02 01:06:45;;;;;;;1.70;1.50;;;4.50;98.20;;;;;;4991588;28;20483;-76
2022/12/02 01:09:12;;;;;;;1.70;1.40;;;4.50;98.20;;;;;;5013466;28;20475;-75
2022/12/02 01:11:39;;;;;;;1.63;1.40;;;4.50;98.20;;;;;;4986675;28;20484;-75
2022/12/02 01:14:05;;;;;;;1.63;1.40;;;4.50;98.20;;;;;;4990937;28;20462;-76
2022/12/02 01:16:34;;;;;;;1.63;1.40;;;4.50;98.20;;;;;;4977298;28;20580;-76
2022/12/02 01:19:01;;;;;;;1.60;1.40;;;4.40;98.20;;;;;;5011659;28;20483;-74
2022/12/02 01:21:28;;;;;;;1.63;1.40;;;4.40;98.20;;;;;;4999668;28;20483;-75
2022/12/02 01:23:55;;;;;;;2.07;1.87;;;4.40;98.20;;;;;;5021906;28;20957;-74
2022/12/02 01:26:22;;;;;;;1.70;1.50;;;4.40;98.20;;;;;;5000336;28;20491;-75
2022/12/02 01:28:49;;;;;;;1.60;1.40;;;4.40;98.20;;;;;;5001790;28;20559;-75
2022/12/02 01:31:16;;;;;;;1.93;1.73;;;4.40;98.20;;;;;;4985694;28;20577;-75
2022/12/02 01:33:45;;;;;;;1.70;1.40;;;4.40;98.20;;;;;;5022832;28;20480;-75
2022/12/02 01:36:12;;;;;;;1.60;1.40;;;4.40;98.20;;;;;;4998820;28;20545;-76
2022/12/02 01:38:39;;;;;;;1.67;1.40;;;4.40;98.20;;;;;;5003910;28;20819;-75
2022/12/02 01:41:06;;;;;;;1.67;1.30;;;4.40;98.20;;;;;;4983938;28;20477;-75
2022/12/02 01:43:34;;;;;;;1.70;1.50;;;4.40;98.20;;;;;;5004598;28;20529;-75
2022/12/02 01:46:01;;;;;;;1.67;1.30;;;4.40;98.20;;;;;;4982054;28;20493;-76
2022/12/02 01:48:29;;;;;;;1.63;1.30;;;4.40;98.20;;;;;;5024904;28;20464;-75
2022/12/02 01:50:58;;;;;;;1.63;1.40;;;4.50;98.20;;;;;;5001645;28;20626;-74
2022/12/02 01:53:26;;;;;;;1.63;1.40;;;4.50;98.20;;;;;;5005751;28;20552;-75
2022/12/02 01:55:54;;;;;;;1.67;1.40;;;4.50;98.20;;;;;;4981287;28;20464;-75
2022/12/02 01:58:28;;;;;;;1.70;1.50;;;4.50;98.20;;;;;;5005050;28;20477;-75
2022/12/02 02:00:56;;;;;;;1.63;1.40;;;4.50;98.20;;;;;;4984432;28;20510;-76
2022/12/02 02:03:23;;;;;;;1.67;1.40;;;4.50;98.20;;;;;;5012318;28;20464;-74
2022/12/02 02:05:51;;;;;;;1.63;1.40;;;4.50;98.20;;;;;;4981398;28;20470;-73
2022/12/02 02:08:20;;;;;;;1.70;1.40;;;4.50;98.20;;;;;;5004998;28;21150;-74
2022/12/02 02:10:48;;;;;;;1.63;1.40;;;4.50;98.20;;;;;;4990466;28;20496;-73
2022/12/02 02:13:17;;;;;;;1.63;1.40;;;4.50;98.20;;;;;;4980608;28;20596;-73
2022/12/02 02:15:45;;;;;;;1.67;1.40;;;4.40;98.20;;;;;;4990755;28;20463;-74
2022/12/02 02:18:13;;;;;;;1.67;1.40;;;4.40;98.20;;;;;;5014885;28;20972;-73
2022/12/02 02:20:41;;;;;;;1.70;1.50;;;4.40;98.20;;;;;;4996683;28;20484;-73
2022/12/02 02:23:26;;;;;;;1.70;1.40;;;4.40;98.20;;;;;;5003520;28;20472;-74
2022/12/02 02:25:56;;;;;;;1.63;1.40;;;4.40;98.20;;;;;;4981589;28;20546;-74
2022/12/02 02:28:24;;;;;;;1.63;1.40;;;4.40;98.20;;;;;;5001393;28;20469;-73
2022/12/02 02:30:52;;;;;;;1.67;1.40;;;4.40;98.20;;;;;;4977994;28;20865;-74
2022/12/02 02:33:21;;;;;;;2.27;2.07;;;4.40;98.20;;;;;;5009994;28;20481;-74
2022/12/02 02:35:48;;;;;;;1.67;1.40;;;4.40;98.20;;;;;;4987532;28;20457;-74
2022/12/02 02:38:19;;;;;;;1.70;1.40;;;4.40;98.20;;;;;;5001231;28;20465;-74
2022/12/02 02:40:47;;;;;;;1.70;1.40;;;4.40;98.20;;;;;;4986095;28;20473;-73
2022/12/02 02:43:16;;;;;;;1.67;1.40;;;4.40;98.20;;;;;;4989091;28;20488;-73
2022/12/02 02:45:45;;;;;;;1.63;1.40;;;4.40;98.20;;;;;;5008424;28;20479;-74
2022/12/02 02:48:12;;;;;;;1.70;1.40;;;4.40;98.20;;;;;;5014895;28;20480;-73
2022/12/02 02:50:43;;;;;;;1.63;1.30;;;4.40;98.20;;;;;;4994399;28;20996;-74
2022/12/02 02:53:10;;;;;;;1.63;1.30;;;4.40;98.20;;;;;;5011929;28;20488;-73
2022/12/02 02:55:38;;;;;;;1.63;1.40;;;4.40;98.20;;;;;;5009872;28;20530;-74
2022/12/02 02:58:11;;;;;;;1.67;1.30;;;4.40;98.20;;;;;;4994872;28;20528;-73
2022/12/02 03:00:40;;;;;;;1.63;1.30;;;4.40;98.20;;;;;;4996687;28;20589;-72
2022/12/02 03:03:07;;;;;;;1.70;1.40;;;4.40;98.20;;;;;;5012174;28;20509;-74
2022/12/02 03:05:35;;;;;;;1.60;1.30;;;4.40;98.20;;;;;;5009211;28;20981;-74
2022/12/02 03:08:02;;;;;;;2.07;1.80;;;4.40;98.20;;;;;;5013186;28;20487;-73
2022/12/02 03:10:30;;;;;;;1.60;1.40;;;4.40;98.20;;;;;;4993358;28;20495;-73
2022/12/02 03:12:57;;;;;;;1.70;1.60;;;4.40;98.20;;;;;;5010712;28;20563;-73
2022/12/02 03:15:26;;;;;;;1.60;1.30;;;4.40;98.20;;;;;;4990067;28;20485;-73
2022/12/02 03:17:55;;;;;;;1.70;1.50;;;4.40;98.20;;;;;;4994134;28;20487;-73
2022/12/02 03:20:23;;;;;;;1.63;1.40;;;4.40;98.20;;;;;;4988946;28;20485;-74
2022/12/02 03:22:50;;;;;;;1.67;1.40;;;4.40;98.20;;;;;;5009612;28;20486;-73
2022/12/02 03:25:18;;;;;;;1.70;1.40;;;4.40;98.20;;;;;;5009220;28;20468;-73
2022/12/02 03:27:45;;;;;;;2.20;2.00;;;4.40;98.20;;;;;;4996679;28;20487;-73
2022/12/02 03:30:13;;;;;;;1.70;1.40;;;4.50;98.20;;;;;;4988665;28;20499;-73
2022/12/02 03:32:42;;;;;;;1.60;1.33;;;4.40;98.20;;;;;;5007576;28;20491;-73
2022/12/02 03:35:09;;;;;;;1.70;1.50;;;4.40;98.20;;;;;;5010440;28;20546;-73
2022/12/02 03:37:36;;;;;;;1.67;1.40;;;4.50;98.20;;;;;;4997332;28;20480;-73
2022/12/02 03:40:05;;;;;;;1.70;1.43;;;4.50;98.20;;;;;;4990492;28;20492;-74
2022/12/02 03:42:32;;;;;;;2.40;2.17;;;4.50;98.20;;;;;;4997408;28;20483;-73
2022/12/02 03:45:00;;;;;;;1.70;1.40;;;4.50;98.20;;;;;;4997950;23;20491;-78
2022/12/02 03:47:27;;;;;;;1.63;1.30;;;4.50;98.20;;;;;;5019090;28;20483;-79
2022/12/02 03:49:56;;;;;;;1.70;1.50;;;4.50;98.20;;;;;;5012679;28;20468;-80
2022/12/02 03:52:23;;;;;;;2.70;2.50;;;4.50;98.20;;;;;;5011561;28;20569;-78
2022/12/02 03:54:50;;;;;;;1.70;1.40;;;4.50;98.20;;;;;;5012531;28;21127;-79
2022/12/02 03:57:17;;;;;;;1.70;1.50;;;4.50;98.20;;;;;;5010549;28;21151;-77
2022/12/02 03:59:44;;;;;;;1.70;1.43;;;4.50;98.20;;;;;;5014973;28;20456;-77
2022/12/02 04:02:11;;;;;;;1.63;1.40;;;4.50;98.20;;;;;;5021236;28;20486;-82
2022/12/02 04:04:37;;;;;;;1.70;1.40;;;4.50;98.20;;;;;;5032297;28;20463;-78
2022/12/02 04:07:06;;;;;;;1.60;1.40;;;4.50;98.20;;;;;;5009325;28;20493;-77
2022/12/02 04:09:32;;;;;;;1.60;1.40;;;4.50;98.20;;;;;;5007078;28;20984;-82
2022/12/02 04:11:59;;;;;;;1.70;1.50;;;4.50;98.20;;;;;;5007273;28;20907;-77
2022/12/02 04:14:26;;;;;;;1.70;1.40;;;4.50;98.20;;;;;;5015394;28;20846;-76
2022/12/02 04:16:53;;;;;;;1.70;1.40;;;4.50;98.20;;;;;;5014335;28;21169;-79
2022/12/02 04:19:20;;;;;;;1.70;1.53;;;4.50;98.20;;;;;;5032578;28;20481;-75
2022/12/02 04:21:47;;;;;;;1.70;1.40;;;4.50;98.20;;;;;;5012117;28;20486;-76
2022/12/02 04:24:15;;;;;;;1.70;1.50;;;4.50;98.20;;;;;;5017162;28;20965;-77
2022/12/02 04:26:42;;;;;;;1.70;1.50;;;4.50;98.20;;;;;;5009434;28;20482;-77
2022/12/02 04:29:09;;;;;;;1.70;1.40;;;4.50;98.20;;;;;;5010824;28;20819;-77
2022/12/02 04:31:36;;;;;;;1.60;1.40;;;4.50;98.20;;;;;;5004632;28;20486;-78
2022/12/02 04:34:02;;;;;;;1.60;1.40;;;4.50;98.20;;;;;;5019625;28;20514;-77
2022/12/02 04:36:29;;;;;;;1.70;1.40;;;4.50;98.20;;;;;;5004023;28;20494;-77
2022/12/02 04:38:56;;;;;;;1.60;1.30;;;4.40;98.20;;;;;;5019364;28;20551;-76
2022/12/02 04:41:24;;;;;;;1.70;1.40;;;4.40;98.20;;;;;;5002930;28;20482;-76
2022/12/02 04:43:51;;;;;;;1.67;1.30;;;4.50;98.20;;;;;;5019281;28;20471;-80
2022/12/02 04:46:18;;;;;;;1.60;1.40;;;4.50;98.20;;;;;;5008683;28;20481;-77
2022/12/02 04:48:45;;;;;;;1.60;1.40;;;4.40;98.20;;;;;;5043962;28;20517;-77
2022/12/02 04:51:11;;;;;;;1.67;1.40;;;4.50;98.20;;;;;;5012894;28;20842;-76
2022/12/02 04:53:38;;;;;;;1.60;1.40;;;4.40;98.20;;;;;;5030863;28;20470;-77
2022/12/02 04:56:06;;;;;;;1.63;1.40;;;4.40;98.20;;;;;;5022482;28;20856;-77
2022/12/02 04:58:34;;;;;;;1.70;1.50;;;4.40;98.20;;;;;;5024365;28;20467;-76
2022/12/02 05:01:00;;;;;;;1.63;1.40;;;4.50;98.20;;;;;;5002445;28;20959;-78
2022/12/02 05:03:27;;;;;;;1.67;1.40;;;4.50;98.20;;;;;;5010499;28;20838;-77
2022/12/02 05:05:54;;;;;;;1.70;1.40;;;4.50;98.20;;;;;;5002521;28;20903;-77
2022/12/02 05:08:21;;;;;;;1.70;1.47;;;4.50;98.20;;;;;;5023631;28;20475;-78
2022/12/02 05:10:47;;;;;;;1.70;1.50;;;4.50;98.20;;;;;;5007626;28;21084;-75
2022/12/02 05:13:14;;;;;;;1.67;1.40;;;4.50;98.20;;;;;;5025305;28;20460;-76
2022/12/02 05:15:42;;;;;;;1.67;1.40;;;4.50;98.20;;;;;;5011175;28;20832;-78
2022/12/02 05:18:09;;;;;;;1.67;1.40;;;4.50;98.20;;;;;;5016463;28;20484;-77
2022/12/02 05:20:36;;;;;;;1.60;1.30;;;4.50;98.20;;;;;;5012007;28;20468;-76
2022/12/02 05:23:03;;;;;;;1.60;1.40;;;4.50;98.20;;;;;;5001150;28;20703;-75
2022/12/02 05:25:29;;;;;;;1.63;1.40;;;4.50;98.20;;;;;;5011825;28;20479;-77
2022/12/02 05:27:56;;;;;;;1.70;1.40;;;4.50;98.20;;;;;;5032438;28;20486;-76
2022/12/02 05:30:23;;;;;;;2.73;2.53;;;4.50;98.20;;;;;;5026636;28;20999;-77
2022/12/02 05:32:51;;;;;;;1.60;1.30;;;4.50;98.20;;;;;;5017046;28;20483;-81
2022/12/02 05:35:18;;;;;;;1.70;1.40;;;4.40;98.20;;;;;;5011352;28;20543;-75
2022/12/02 05:37:44;;;;;;;1.70;1.40;;;4.40;98.20;;;;;;5000880;28;21001;-76
2022/12/02 05:40:12;;;;;;;1.67;1.30;;;4.40;98.20;;;;;;5004792;28;20468;-75
2022/12/02 05:42:39;;;;;;;1.60;1.30;;;4.40;98.20;;;;;;5005384;28;20475;-78
2022/12/02 05:45:15;;;;;;;1.70;1.50;;;4.40;98.20;;;;;;4993516;28;20495;-76
2022/12/02 05:47:43;;;;;;;1.70;1.47;;;4.40;98.20;;;;;;4998515;28;20507;-76
2022/12/02 05:58:32;;;;;;;2.10;1.90;;;4.40;98.20;;;;;;4986963;28;20481;-79
2022/12/02 06:01:00;;;;;;;1.70;1.40;;;4.40;98.20;;;;;;4977267;28;20472;-75
2022/12/02 06:03:27;;;;;;;1.70;1.40;;;4.40;98.20;;;;;;4967745;28;20500;-78
2022/12/02 06:05:55;;;;;;;1.67;1.30;;;4.40;98.20;;;;;;4965958;28;20538;-76
2022/12/02 06:08:23;;;;;;;1.70;1.40;;;4.40;98.20;;;;;;4962960;28;20502;-75
2022/12/02 06:10:53;;;;;;;1.70;1.40;;;4.40;98.20;;;;;;4956136;28;20470;-79
2022/12/02 06:13:22;;;;;;;1.67;1.40;;;4.40;98.20;;;;;;4962530;28;20573;-77
2022/12/02 06:15:50;;;;;;;1.70;1.47;;;4.40;98.20;;;;;;4961594;28;20492;-75
2022/12/02 06:18:19;;;;;;;1.60;1.40;;;4.50;98.20;;;;;;4969499;28;20470;-76
2022/12/02 06:20:48;;;;;;;1.70;1.50;;;4.50;98.20;;;;;;4968736;28;20474;-76
2022/12/02 06:23:18;;;;;;;1.70;1.50;;;4.50;98.20;;;;;;4944193;28;20555;-76
2022/12/02 06:25:47;;;;;;;1.70;1.40;;;4.50;98.20;;;;;;4966941;28;20891;-77
2022/12/02 06:28:23;;;;;;;1.63;1.40;;;4.50;98.20;;;;;;4939647;28;20852;-77
2022/12/02 06:30:50;;;;;;;1.63;1.30;;;4.40;98.20;;;;;;4959839;28;20983;-77
2022/12/02 06:33:25;;;;;;;1.70;1.47;;;4.40;98.20;;;;;;4976057;28;20489;-76
2022/12/02 06:35:53;;;;;;;1.63;1.30;;;4.40;98.20;;;;;;4956837;28;20489;-77
2022/12/02 06:38:29;;;;;;;1.67;1.40;;;4.40;98.20;;;;;;4963718;28;20481;-76
2022/12/02 06:40:56;;;;;;;1.70;1.40;;;4.50;98.20;;;;;;4957662;28;20874;-77
2022/12/02 06:43:26;;;;;;;1.70;1.40;;;4.40;98.20;;;;;;4967342;28;20469;-78
2022/12/02 06:45:53;;;;;;;1.70;1.40;;;4.40;98.20;;;;;;4957239;28;20485;-75
2022/12/02 06:48:30;;;;;;;1.70;1.40;;;4.40;98.20;;;;;;4973510;28;20947;-76
2022/12/02 06:51:00;;;;;;;2.43;2.23;;;4.40;98.20;;;;;;4958595;28;20472;-76
2022/12/02 06:53:34;;;;;;;1.63;1.30;;;4.40;98.20;;;;;;4967214;28;20485;-76
2022/12/02 06:56:05;;;;;;;1.67;1.50;;;4.40;98.20;;;;;;4955741;28;20889;-77
2022/12/02 06:58:39;;;;;;;1.70;1.50;;;4.50;98.20;;;;;;4967504;28;20473;-77
2022/12/02 07:01:28;;;;;;;1.70;1.50;;;4.50;98.20;;;;;;4957042;28;20905;-76
2022/12/02 07:04:27;;;;;;;1.60;1.40;;;4.50;98.20;;;;;;4965824;28;20951;-75
2022/12/02 07:06:56;;;;;;;1.67;1.43;;;4.50;98.20;;;;;;4954149;28;20490;-77
2022/12/02 07:09:32;;;;;;;2.37;2.17;;;4.50;98.20;;;;;;4964031;28;20469;-75
2022/12/02 07:12:00;;;;;;;1.70;1.40;;;4.40;98.20;;;;;;4955792;28;20477;-76
2022/12/02 07:14:38;;;;;;;1.70;1.40;;;4.50;98.20;;;;;;4966268;28;20505;-76
2022/12/02 07:17:23;;;;;;;1.67;1.40;;;4.40;98.20;;;;;;4956411;28;20500;-76
2022/12/02 07:19:56;;;;;;;1.70;1.50;;;4.40;98.20;;;;;;4965178;28;20473;-75
2022/12/02 07:22:29;;;;;;;2.00;1.80;;;4.40;98.20;;;;;;4957478;28;20476;-77
2022/12/02 07:25:01;;;;;;;1.63;1.33;;;4.40;98.20;;;;;;4965670;28;20855;-75
2022/12/02 07:27:32;;;;;;;1.70;1.40;;;4.50;98.20;;;;;;4962957;28;20929;-76
2022/12/02 07:29:59;;;;;;;2.30;2.10;;;4.50;98.20;;;;;;4964654;28;20932;-76
2022/12/02 07:32:26;;;;;;;1.60;1.30;;;4.50;98.20;;;;;;4956919;28;21032;-75
2022/12/02 07:34:53;;;;;;;1.67;1.43;;;4.50;98.20;;;;;;4963965;28;20844;-76
2022/12/02 07:37:20;;;;;;;1.60;1.30;;;4.50;98.20;;;;;;4953321;28;20570;-76
2022/12/02 07:39:47;;;;;;;1.70;1.40;;;4.60;98.20;;;;;;4967129;28;20717;-76
2022/12/02 07:42:15;;;;;;;2.90;2.70;;;4.60;98.20;;;;;;4954426;28;20846;-76
2022/12/02 07:44:43;;;;;;;2.00;1.80;;;4.50;98.20;;;;;;4965578;28;20489;-75
2022/12/02 07:47:10;;;;;;;1.60;1.40;;;4.50;98.20;;;;;;4957349;28;20769;-76
2022/12/02 07:49:36;;;;;;;1.60;1.30;;;4.50;98.20;;;;;;4968482;28;20472;-76
2022/12/02 07:52:03;;;;;;;3.17;2.97;;;4.50;98.20;;;;;;4948063;28;20489;-76
2022/12/02 07:54:32;;;;;;;1.70;1.57;;;4.50;98.20;;;;;;4963235;28;20508;-76
2022/12/02 07:56:59;;;;;;;1.67;1.40;;;4.50;98.20;;;;;;4957362;28;20482;-76
2022/12/02 07:59:28;;;;;;;2.00;1.80;;;4.40;98.20;;;;;;4969657;28;20470;-76
2022/12/02 08:01:54;;;;;;;1.70;1.40;;;4.40;98.20;;;;;;4948255;28;20479;-76
2022/12/02 08:04:21;;;;;;;1.70;1.40;;;4.40;98.20;;;;;;4962939;28;20470;-76
2022/12/02 08:06:51;;;;;;;1.70;1.50;;;4.40;98.20;;;;;;4953768;28;20497;-76
2022/12/02 08:09:17;;;;;;;1.67;1.40;;;4.50;98.20;;;;;;4964143;28;20824;-76
2022/12/02 08:11:44;;;;;;;3.17;2.97;;;4.40;98.20;;;;;;4953141;28;20478;-79
2022/12/02 08:14:11;;;;;;;1.70;1.40;;;4.50;98.20;;;;;;4964074;28;20512;-77
2022/12/02 08:16:39;;;;;;;1.67;1.40;;;4.50;98.20;;;;;;4949770;28;20494;-76
2022/12/02 08:19:06;;;;;;;1.60;1.30;;;4.50;98.20;;;;;;4960831;28;20459;-78
2022/12/02 08:21:33;;;;;;;1.67;1.40;;;4.50;98.20;;;;;;4954161;28;20963;-77
2022/12/02 08:24:00;;;;;;;1.63;1.40;;;4.50;98.20;;;;;;4964418;28;20481;-77
2022/12/02 08:26:27;;;;;;;1.70;1.40;;;4.50;98.20;;;;;;4954080;28;20490;-76
2022/12/02 08:28:54;;;;;;;1.70;1.40;;;4.50;98.20;;;;;;4960536;28;20466;-77
2022/12/02 08:31:21;;;;;;;1.70;1.40;;;4.50;98.20;;;;;;4960257;28;20474;-77
2022/12/02 08:33:49;;;;;;;1.67;1.40;;;4.50;98.20;;;;;;4963744;28;21132;-77
2022/12/02 08:36:16;;;;;;;1.70;1.40;;;4.50;98.20;;;;;;4956095;28;20485;-77
2022/12/02 08:38:43;;;;;;;1.70;1.50;;;4.50;98.20;;;;;;4974466;28;20469;-77
2022/12/02 08:41:10;;;;;;;2.70;2.50;;;4.50;98.20;;;;;;4957515;28;20481;-79
2022/12/02 08:43:37;;;;;;;1.60;1.40;;;4.50;98.20;;;;;;4968207;28;20465;-78
2022/12/02 08:46:05;;;;;;;1.70;1.40;;;4.50;98.20;;;;;;4957653;28;20544;-82
2022/12/02 08:48:31;;;;;;;1.63;1.30;;;4.50;98.20;;;;;;4961979;28;20461;-79
2022/12/02 08:51:01;;;;;;;1.63;1.40;;;4.50;98.20;;;;;;4957798;28;20470;-79
2022/12/02 08:53:28;;;;;;;12.77;11.87;;;4.50;98.20;;;;;;4969768;28;20485;-79
2022/12/02 08:55:55;;;;;;;1.60;1.30;;;4.50;98.20;;;;;;4958096;28;20677;-79
2022/12/02 08:58:22;;;;;;;1.70;1.50;;;4.50;98.20;;;;;;4963894;28;20485;-78
2022/12/02 09:00:48;;;;;;;1.60;1.30;;;4.50;98.20;;;;;;4963436;28;20469;-77
2022/12/02 09:03:15;;;;;;;1.60;1.30;;;4.50;98.20;;;;;;4964162;28;20548;-77
2022/12/02 09:05:42;;;;;;;1.70;1.40;;;4.60;98.20;;;;;;4968623;28;20493;-78
2022/12/02 09:08:10;;;;;;;2.13;1.93;;;4.60;98.20;;;;;;4961781;28;20479;-77
2022/12/02 09:10:37;;;;;;;1.60;1.40;;;4.60;98.20;;;;;;4967525;28;20466;-77
2022/12/02 09:13:12;;;;;;;1.70;1.50;;;4.60;98.20;;;;;;4955802;28;20539;-77
2022/12/02 09:15:39;;;;;;;1.70;1.60;;;4.50;98.20;;;;;;4965069;28;20481;-78
2022/12/02 09:18:06;;;;;;;1.70;1.40;;;4.50;98.20;;;;;;4956931;28;20512;-77
2022/12/02 09:20:32;;;;;;;1.70;1.40;;;4.50;98.20;;;;;;4968012;28;20755;-77
2022/12/02 09:23:00;;;;;;;1.60;1.37;;;4.50;98.20;;;;;;4954643;28;20482;-77
2022/12/02 09:25:28;;;;;;;1.67;1.37;;;4.60;98.20;;;;;;4965203;28;20478;-77
2022/12/02 09:27:55;;;;;;;1.70;1.50;;;4.60;98.20;;;;;;4956017;28;20530;-79
2022/12/02 09:30:22;;;;;;;1.70;1.50;;;4.60;98.20;;;;;;4969876;28;20470;-79
2022/12/02 09:32:49;;;;;;;5.30;5.00;;;4.60;98.20;;;;;;4954643;28;20488;-77
2022/12/02 09:35:16;;;;;;;1.70;1.30;;;4.60;98.20;;;;;;4968507;28;20490;-79
2022/12/02 09:37:43;;;;;;;1.70;1.30;;;4.60;98.20;;;;;;4964867;28;20520;-78
2022/12/02 09:40:11;;;;;;;3.97;3.67;;;4.60;98.20;;;;;;4970309;28;20560;-77
2022/12/02 09:42:39;;;;;;;1.63;1.30;;;4.60;98.20;;;;;;4960707;28;20504;-77
2022/12/02 09:45:07;;;;;;;2.53;2.33;;;4.60;98.20;;;;;;4970001;28;20492;-78
2022/12/02 09:47:34;;;;;;;2.17;1.93;;;4.60;98.20;;;;;;4958849;28;20490;-80
2022/12/02 09:50:01;;;;;;;1.70;1.60;;;4.60;98.20;;;;;;4969008;28;20466;-81
2022/12/02 09:52:28;;;;;;;2.20;2.00;;;4.60;98.20;;;;;;4960403;28;20553;-76
2022/12/02 09:54:57;;;;;;;1.70;1.40;;;4.60;98.20;;;;;;4965260;28;20481;-80
2022/12/02 09:57:28;;;;;;;1.70;1.40;;;4.50;98.20;;;;;;4950862;28;20478;-76
2022/12/02 09:59:57;;;;;;;1.60;1.30;;;4.50;98.20;;;;;;4966835;28;20486;-76
2022/12/02 10:02:29;;;;;;;1.70;1.40;;;4.60;98.20;;;;;;4947623;28;20483;-77
2022/12/02 10:04:59;;;;;;;1.70;1.60;;;4.60;98.20;;;;;;4966888;28;20478;-79
2022/12/02 10:07:26;;;;;;;2.80;2.60;;;4.60;98.20;;;;;;4954457;28;20494;-76
2022/12/02 10:09:52;;;;;;;11.23;5.37;;;4.60;98.20;;;;;;4966069;28;20472;-76
2022/12/02 10:12:20;;;;;;;1.67;1.30;;;4.50;98.20;;;;;;4958209;28;20497;-77
2022/12/02 10:14:50;;;;;;;1.70;1.40;;;4.50;98.20;;;;;;4964001;28;20522;-79
2022/12/02 10:17:20;;;;;;;1.67;1.40;;;4.60;98.20;;;;;;4960172;28;20478;-77
2022/12/02 10:19:48;;;;;;;1.63;1.30;;;4.60;98.20;;;;;;4966528;28;20866;-77
2022/12/02 10:22:16;;;;;;;1.63;1.40;;;4.60;98.20;;;;;;4955566;28;21073;-77
2022/12/02 10:24:43;;;;;;;1.70;1.50;;;4.60;98.20;;;;;;4966243;28;20490;-77
2022/12/02 10:27:24;;;;;;;1.63;1.30;;;4.60;98.20;;;;;;4955065;28;20492;-77
2022/12/02 10:29:51;;;;;;;1.80;1.40;;;4.60;98.20;;;;;;4970151;28;20472;-76
2022/12/02 10:32:23;;;;;;;1.67;1.37;;;4.60;98.20;;;;;;4954569;28;20894;-77
2022/12/02 10:35:03;;;;;;;1.60;1.30;;;4.60;98.20;;;;;;4958888;28;20485;-76
2022/12/02 10:37:32;;;;;;;1.70;1.30;;;4.70;98.20;;;;;;4958583;28;20488;-76
2022/12/02 10:40:14;;;;;;;2.10;1.90;;;4.70;98.20;;;;;;4963876;28;20476;-76
2022/12/02 10:42:41;;;;;;;3.27;3.07;;;4.70;98.20;;;;;;4957468;28;20489;-77
2022/12/02 10:45:18;;;;;;;1.70;1.40;;;4.70;98.20;;;;;;4966729;28;20855;-77
2022/12/02 10:47:47;;;;;;;1.60;1.30;;;4.70;98.20;;;;;;4941186;28;20553;-76
2022/12/02 10:50:20;;;;;;;2.37;2.17;;;4.60;98.20;;;;;;4967220;28;20901;-76
2022/12/02 10:52:49;;;;;;;1.90;1.67;;;4.60;98.20;;;;;;4943891;28;20514;-77
2022/12/02 10:55:17;;;;;;;1.70;1.50;;;4.60;98.20;;;;;;4961788;28;21026;-76
2022/12/02 10:57:45;;;;;;;2.57;2.37;;;4.60;98.20;;;;;;4963677;28;20488;-77
2022/12/02 11:00:19;;;;;;;1.60;1.40;;;4.70;98.20;;;;;;4965878;28;20470;-76
2022/12/02 11:02:51;;;;;;;1.63;1.30;;;4.70;98.20;;;;;;4944147;28;20491;-77
2022/12/02 11:05:21;;;;;;;4.07;3.77;;;4.70;98.20;;;;;;4966242;28;20493;-77
2022/12/02 11:07:55;;;;;;;1.63;1.30;;;4.70;98.20;;;;;;4944036;28;20499;-77
2022/12/02 11:10:25;;;;;;;1.63;1.40;;;4.80;98.20;;;;;;4965635;28;20461;-76
2022/12/02 11:13:07;;;;;;;2.03;1.83;;;4.80;98.20;;;;;;4941426;28;20881;-77
2022/12/02 11:15:40;;;;;;;1.60;1.30;;;4.80;98.20;;;;;;4964176;28;20998;-78
2022/12/02 11:18:11;;;;;;;1.70;1.60;;;4.80;98.20;;;;;;4941248;28;21085;-77
2022/12/02 11:20:40;;;;;;;1.93;1.73;;;4.70;98.20;;;;;;4966294;28;20489;-77
2022/12/02 11:23:26;;;;;;;1.70;1.40;;;4.70;98.20;;;;;;4941975;28;20499;-76
2022/12/02 11:25:58;;;;;;;1.70;1.40;;;4.70;98.20;;;;;;4954386;28;20493;-77
2022/12/02 11:29:13;;;;;;;1.70;1.40;;;4.70;98.20;;;;;;4968064;28;20472;-75
2022/12/02 11:31:40;;;;;;;1.70;1.40;;;4.70;98.20;;;;;;4951061;28;20482;-76
2022/12/02 11:34:41;;;;;;;1.60;1.30;;;4.70;98.20;;;;;;4960236;28;21036;-76
2022/12/02 11:37:47;;;;;;;1.60;1.30;;;4.70;98.20;;;;;;4952669;28;20486;-76
2022/12/02 11:40:56;;;;;;;1.63;1.30;;;4.80;98.20;;;;;;4965471;28;20457;-77
2022/12/02 11:43:53;;;;;;;1.60;1.33;;;4.80;98.20;;;;;;4943238;28;20488;-77
2022/12/02 11:46:21;;;;;;;1.67;1.40;;;4.80;98.20;;;;;;4952552;28;20469;-78
2022/12/02 11:48:50;;;;;;;1.63;1.30;;;4.80;98.20;;;;;;4953884;28;20741;-77
2022/12/02 11:51:40;;;;;;;1.70;1.40;;;4.90;98.20;;;;;;4955577;28;20481;-77
2022/12/02 11:54:14;;;;;;;1.70;1.40;;;4.90;98.20;;;;;;4967924;28;20490;-77
2022/12/02 11:56:42;;;;;;;1.67;1.30;;;4.90;98.20;;;;;;4951731;28;20495;-77
2022/12/02 11:59:21;;;;;;;1.60;1.30;;;4.90;98.20;;;;;;4957899;28;20477;-77
2022/12/02 12:01:48;;;;;;;1.70;1.30;;;4.90;98.20;;;;;;4946269;28;20741;-78
2022/12/02 12:04:26;;;;;;;1.70;1.40;;;5.00;98.20;;;;;;4958770;28;20458;-77
2022/12/02 12:06:56;;;;;;;1.60;1.30;;;5.00;98.20;;;;;;4945689;28;20500;-78
2022/12/02 12:09:23;;;;;;;1.97;1.77;;;5.00;98.20;;;;;;4956631;28;20947;-77
2022/12/02 12:12:06;;;;;;;1.70;1.40;;;5.00;98.20;;;;;;4956275;28;20480;-74
2022/12/02 12:14:33;;;;;;;1.70;1.40;;;4.90;98.20;;;;;;4963301;28;20501;-74
2022/12/02 12:17:18;;;;;;;3.50;3.20;;;4.90;98.20;;;;;;4954015;28;21015;-76
2022/12/02 12:19:44;;;;;;;2.13;1.93;;;4.90;98.20;;;;;;4961325;28;20571;-77
2022/12/02 12:22:26;;;;;;;1.70;1.40;;;4.90;98.20;;;;;;4944307;28;20487;-77
2022/12/02 12:24:53;;;;;;;1.60;1.30;;;4.90;98.20;;;;;;4962296;28;22001;-78
2022/12/02 12:27:36;;;;;;;1.70;1.30;;;4.90;98.20;;;;;;4947171;28;20483;-77
2022/12/02 12:30:04;;;;;;;1.67;1.40;;;4.90;98.20;;;;;;4962669;28;20465;-75
2022/12/02 12:32:32;;;;;;;1.70;1.40;;;4.90;98.20;;;;;;4948454;28;20991;-77
2022/12/02 12:34:58;;;;;;;1.60;1.30;;;4.90;98.20;;;;;;4959126;28;20576;-76
2022/12/02 12:37:27;;;;;;;1.60;1.30;;;4.90;98.20;;;;;;4952589;28;20513;-76
2022/12/02 12:39:53;;;;;;;1.63;1.30;;;4.90;98.20;;;;;;4959440;28;21178;-76
2022/12/02 12:42:20;;;;;;;1.67;1.37;;;5.00;98.20;;;;;;4948439;28;20890;-76
2022/12/02 12:44:47;;;;;;;1.67;1.30;;;4.90;98.20;;;;;;4959130;28;20912;-76
2022/12/02 12:47:26;;;;;;;1.67;1.33;;;4.90;98.20;;;;;;4950373;28;20521;-76
2022/12/02 12:49:53;;;;;;;1.67;1.40;;;4.90;98.20;;;;;;4958241;28;21714;-77
2022/12/02 12:52:20;;;;;;;3.20;2.50;;;4.90;98.20;;;;;;4953671;28;20593;-76
2022/12/02 12:54:49;;;;;;;1.63;1.30;;;4.90;98.20;;;;;;4959167;28;20516;-77
2022/12/02 12:57:16;;;;;;;1.63;1.30;;;5.00;98.20;;;;;;4952265;28;20492;-76
2022/12/02 12:59:43;;;;;;;1.63;1.30;;;5.00;98.20;;;;;;4962120;28;20485;-77
2022/12/02 13:02:09;;;;;;;1.60;1.30;;;5.00;98.20;;;;;;4946056;28;20609;-77
2022/12/02 13:04:36;;;;;;;1.70;1.30;;;5.00;98.20;;;;;;4961828;28;20505;-75
2022/12/02 13:07:03;;;;;;;1.70;1.50;;;5.10;98.20;;;;;;4949673;28;21024;-77
2022/12/02 13:09:29;;;;;;;1.60;1.40;;;5.10;98.20;;;;;;4961487;28;20461;-77
2022/12/02 13:11:58;;;;;;;1.67;1.40;;;5.20;98.20;;;;;;4948156;28;20500;-76
2022/12/02 13:14:24;;;;;;;1.60;1.30;;;5.20;98.20;;;;;;4962010;28;20489;-76
2022/12/02 13:16:51;;;;;;;1.67;1.33;;;5.20;98.20;;;;;;4948443;28;20912;-77
2022/12/02 13:19:18;;;;;;;1.70;1.50;;;5.20;98.20;;;;;;4964368;28;20466;-76
2022/12/02 13:21:45;;;;;;;1.70;1.40;;;5.20;98.20;;;;;;4950700;28;20482;-76